Time;durP1;ratioP1;P1;durP2;ratioP2;P2;SDS_P1;SDS_P2;PMS_P1;PMS_P2;Temp;Humidity;BMP_temperature;BMP_pressure;BME280_temperature;BME280_humidity;BME280_pressure;Samples;Min_cycle;Max_cycle;Signal;HPM_P1;HPM_P2
2023/01/13 00:01:45;;;;;;;;;;;;;;;;;;5094470;28;19908;-64
2023/01/13 00:04:10;;;;;;;;;;;;;;;;;;5072668;28;20400;-64
2023/01/13 00:06:35;;;;;;;;;;;;;;;;;;5078457;28;19927;-64
2023/01/13 00:09:00;;;;;;;;;;;;;;;;;;5073608;28;19908;-64
2023/01/13 00:11:26;;;;;;;;;;;;;;;;;;5073587;28;19909;-64
2023/01/13 00:13:51;;;;;;;;;;;;;;;;;;5071795;28;19944;-64
2023/01/13 00:16:16;;;;;;;;;;;;;;;;;;5072926;28;19913;-64
2023/01/13 00:18:41;;;;;;;;;;;;;;;;;;5063647;28;20376;-64
2023/01/13 00:21:07;;;;;;;;;;;;;;;;;;5094859;28;19912;-64
2023/01/13 00:23:32;;;;;;;;;;;;;;;;;;5078101;28;19920;-64
2023/01/13 00:25:57;;;;;;;;;;;;;;;;;;5074041;28;19908;-64
2023/01/13 00:28:22;;;;;;;;;;;;;;;;;;5073499;28;19919;-63
2023/01/13 00:30:48;;;;;;;;;;;;;;;;;;5094042;28;19922;-65
2023/01/13 00:33:13;;;;;;;;;;;;;;;;;;5092559;28;19908;-63
2023/01/13 00:35:38;;;;;;;;;;;;;;;;;;5073435;28;20142;-64
2023/01/13 00:38:03;;;;;;;;;;;;;;;;;;5054576;28;19908;-64
2023/01/13 00:40:28;;;;;;;;;;;;;;;;;;5076537;28;19928;-64
2023/01/13 00:45:37;;;;;;;;;;;;;;;;;;5078892;28;20014;-64
2023/01/13 00:48:02;;;;;;;;;;;;;;;;;;5064235;28;20466;-64
2023/01/13 00:50:29;;;;;;;;;;;;;;;;;;5056956;28;19919;-64
2023/01/13 00:52:54;;;;;;;;;;;;;;;;;;5054083;28;20380;-64
2023/01/13 00:55:19;;;;;;;;;;;;;;;;;;5058395;28;19919;-64
2023/01/13 00:57:44;;;;;;;;;;;;;;;;;;5074773;28;19923;-64
2023/01/13 01:00:09;;;;;;;;;;;;;;;;;;5093339;28;19912;-64
2023/01/13 01:02:34;;;;;;;;;;;;;;;;;;5029726;28;19914;-64
2023/01/13 01:04:59;;;;;;;;;;;;;;;;;;5075325;28;19951;-65
2023/01/13 01:07:25;;;;;;;;;;;;;;;;;;5065436;28;19913;-64
2023/01/13 01:09:50;;;;;;;;;;;;;;;;;;5068392;28;19912;-64
2023/01/13 01:12:15;;;;;;;;;;;;;;;;;;5073345;28;19908;-64
2023/01/13 01:14:40;;;;;;;;;;;;;;;;;;5054021;28;20349;-64
2023/01/13 01:17:05;;;;;;;;;;;;;;;;;;5072852;28;20305;-64
2023/01/13 01:19:30;;;;;;;;;;;;;;;;;;5054471;28;19912;-65
2023/01/13 01:21:55;;;;;;;;;;;;;;;;;;5073183;28;19913;-64
2023/01/13 01:24:20;;;;;;;;;;;;;;;;;;5071830;28;20336;-64
2023/01/13 01:26:46;;;;;;;;;;;;;;;;;;5070953;28;19927;-64
2023/01/13 01:29:11;;;;;;;;;;;;;;;;;;5054451;28;19913;-64
2023/01/13 01:31:36;;;;;;;;;;;;;;;;;;5072623;28;20003;-64
2023/01/13 01:34:01;;;;;;;;;;;;;;;;;;5090485;28;19965;-64
2023/01/13 01:36:27;;;;;;;;;;;;;;;;;;5079953;28;20422;-64
2023/01/13 01:38:52;;;;;;;;;;;;;;;;;;5070514;28;20376;-64
2023/01/13 01:41:17;;;;;;;;;;;;;;;;;;5072675;28;19915;-65
2023/01/13 01:43:58;;;;;;;;;;;;;;;;;;5070150;28;19912;-64
2023/01/13 01:46:23;;;;;;;;;;;;;;;;;;5072371;28;20373;-64
2023/01/13 01:48:48;;;;;;;;;;;;;;;;;;5070859;28;20011;-64
2023/01/13 01:51:13;;;;;;;;;;;;;;;;;;5071708;28;19988;-64
2023/01/13 01:53:38;;;;;;;;;;;;;;;;;;5067930;28;19916;-64
2023/01/13 01:56:04;;;;;;;;;;;;;;;;;;5071970;28;20321;-64
2023/01/13 01:58:29;;;;;;;;;;;;;;;;;;5074513;28;20280;-64
2023/01/13 02:00:54;;;;;;;;;;;;;;;;;;5070920;28;19924;-64
2023/01/13 02:03:19;;;;;;;;;;;;;;;;;;5081003;28;19912;-64
2023/01/13 02:05:44;;;;;;;;;;;;;;;;;;5085649;28;20003;-63
2023/01/13 02:08:09;;;;;;;;;;;;;;;;;;5071551;28;19934;-64
2023/01/13 02:10:34;;;;;;;;;;;;;;;;;;5069337;28;19927;-63
2023/01/13 02:13:00;;;;;;;;;;;;;;;;;;5072683;28;20418;-64
2023/01/13 02:15:25;;;;;;;;;;;;;;;;;;5067039;28;19909;-64
2023/01/13 02:17:50;;;;;;;;;;;;;;;;;;5081730;28;20038;-64
2023/01/13 02:20:15;;;;;;;;;;;;;;;;;;5079490;28;19912;-64
2023/01/13 02:22:40;;;;;;;;;;;;;;;;;;5081568;28;19998;-65
2023/01/13 02:25:06;;;;;;;;;;;;;;;;;;5071702;28;19916;-65
2023/01/13 02:27:31;;;;;;;;;;;;;;;;;;5063783;28;19985;-65
2023/01/13 02:32:40;;;;;;;;;;;;;;;;;;5082265;28;19935;-64
2023/01/13 02:35:05;;;;;;;;;;;;;;;;;;5068547;28;20345;-64
2023/01/13 02:37:30;;;;;;;;;;;;;;;;;;5072973;28;19935;-64
2023/01/13 02:39:55;;;;;;;;;;;;;;;;;;5053436;28;19921;-64
2023/01/13 02:45:04;;;;;;;;;;;;;;;;;;5071863;28;19962;-64
2023/01/13 02:47:29;;;;;;;;;;;;;;;;;;5089919;28;20365;-64
2023/01/13 02:49:54;;;;;;;;;;;;;;;;;;5082430;28;19913;-63
2023/01/13 02:52:19;;;;;;;;;;;;;;;;;;5069134;28;19916;-64
2023/01/13 02:54:45;;;;;;;;;;;;;;;;;;5071175;28;20272;-65
2023/01/13 02:57:10;;;;;;;;;;;;;;;;;;5070437;28;20351;-65
2023/01/13 02:59:35;;;;;;;;;;;;;;;;;;5071875;28;20025;-65
2023/01/13 03:02:02;;;;;;;;;;;;;;;;;;5061423;28;20265;-65
2023/01/13 03:04:27;;;;;;;;;;;;;;;;;;5071952;28;19955;-65
2023/01/13 03:06:53;;;;;;;;;;;;;;;;;;5068713;28;20001;-65
2023/01/13 03:09:18;;;;;;;;;;;;;;;;;;5071011;28;19912;-65
2023/01/13 03:11:43;;;;;;;;;;;;;;;;;;5071559;28;19944;-65
2023/01/13 03:14:08;;;;;;;;;;;;;;;;;;5068741;28;19912;-65
2023/01/13 03:16:33;;;;;;;;;;;;;;;;;;5077022;28;20010;-65
2023/01/13 03:18:58;;;;;;;;;;;;;;;;;;5069717;28;19955;-65
2023/01/13 03:21:23;;;;;;;;;;;;;;;;;;5057008;28;19916;-65
2023/01/13 03:23:49;;;;;;;;;;;;;;;;;;5071166;28;19958;-64
2023/01/13 03:26:14;;;;;;;;;;;;;;;;;;5071912;28;19927;-65
2023/01/13 03:28:40;;;;;;;;;;;;;;;;;;5080167;28;19912;-65
2023/01/13 03:31:05;;;;;;;;;;;;;;;;;;5077396;28;20007;-65
2023/01/13 03:33:30;;;;;;;;;;;;;;;;;;5074690;28;19995;-65
2023/01/13 03:35:55;;;;;;;;;;;;;;;;;;5073909;28;20356;-64
2023/01/13 03:38:20;;;;;;;;;;;;;;;;;;5072991;28;19927;-64
2023/01/13 03:40:45;;;;;;;;;;;;;;;;;;5075884;28;19932;-64
2023/01/13 03:45:54;;;;;;;;;;;;;;;;;;5070403;28;19919;-64
2023/01/13 03:48:19;;;;;;;;;;;;;;;;;;5057217;28;20123;-65
2023/01/13 03:50:44;;;;;;;;;;;;;;;;;;5072242;28;20002;-65
2023/01/13 03:53:10;;;;;;;;;;;;;;;;;;5070825;28;20002;-65
2023/01/13 03:55:35;;;;;;;;;;;;;;;;;;5060710;28;20008;-65
2023/01/13 03:58:00;;;;;;;;;;;;;;;;;;5075038;28;20316;-65
2023/01/13 04:00:25;;;;;;;;;;;;;;;;;;5055657;28;20440;-64
2023/01/13 04:02:50;;;;;;;;;;;;;;;;;;5056897;28;20372;-64
2023/01/13 04:05:15;;;;;;;;;;;;;;;;;;5054172;28;19917;-65
2023/01/13 04:07:41;;;;;;;;;;;;;;;;;;5073302;28;19934;-65
2023/01/13 04:10:06;;;;;;;;;;;;;;;;;;5071508;28;19913;-65
2023/01/13 04:13:16;;;;;;;;;;;;;;;;;;5073616;28;20014;-65
2023/01/13 04:15:16;;;;;;;;;;;;;;;;;;5058642;28;20368;-65
2023/01/13 04:17:41;;;;;;;;;;;;;;;;;;5055868;28;20013;-65
2023/01/13 04:20:06;;;;;;;;;;;;;;;;;;5075397;28;19912;-65
2023/01/13 04:22:32;;;;;;;;;;;;;;;;;;5072573;28;19919;-65
2023/01/13 04:24:57;;;;;;;;;;;;;;;;;;5079289;28;19908;-65
2023/01/13 04:27:22;;;;;;;;;;;;;;;;;;5076492;28;19938;-65
2023/01/13 04:29:47;;;;;;;;;;;;;;;;;;5069159;28;19908;-65
2023/01/13 04:32:12;;;;;;;;;;;;;;;;;;5064252;28;19913;-65
2023/01/13 04:34:37;;;;;;;;;;;;;;;;;;5069157;28;19995;-65
2023/01/13 04:37:02;;;;;;;;;;;;;;;;;;5072353;28;19912;-65
2023/01/13 04:39:28;;;;;;;;;;;;;;;;;;5073877;28;20015;-64
2023/01/13 04:42:01;;;;;;;;;;;;;;;;;;5062122;28;19975;-65
2023/01/13 04:44:26;;;;;;;;;;;;;;;;;;5055639;28;19951;-65
2023/01/13 04:46:51;;;;;;;;;;;;;;;;;;5073882;28;20288;-65
2023/01/13 04:49:16;;;;;;;;;;;;;;;;;;5072154;28;20011;-64
2023/01/13 04:51:41;;;;;;;;;;;;;;;;;;5070784;28;19920;-65
2023/01/13 04:54:06;;;;;;;;;;;;;;;;;;5066949;28;19908;-65
2023/01/13 04:56:32;;;;;;;;;;;;;;;;;;5062175;28;19917;-65
2023/01/13 04:58:57;;;;;;;;;;;;;;;;;;5069518;28;19915;-65
2023/01/13 05:01:22;;;;;;;;;;;;;;;;;;5053051;28;19916;-65
2023/01/13 05:03:47;;;;;;;;;;;;;;;;;;5055240;28;19909;-65
2023/01/13 05:06:12;;;;;;;;;;;;;;;;;;5066799;28;19919;-65
2023/01/13 05:08:37;;;;;;;;;;;;;;;;;;5072151;28;19915;-65
2023/01/13 05:16:58;;;;;;;;;;;;;;;;;;5069750;28;19981;-65
2023/01/13 05:19:15;;;;;;;;;;;;;;;;;;5069858;28;20378;-65
2023/01/13 05:27:08;;;;;;;;;;;;;;;;;;5069178;28;19958;-65
2023/01/13 05:29:33;;;;;;;;;;;;;;;;;;5070902;28;19921;-65
2023/01/13 05:32:01;;;;;;;;;;;;;;;;;;5071261;28;20348;-65
2023/01/13 05:34:26;;;;;;;;;;;;;;;;;;5074102;28;19912;-62
2023/01/13 05:36:51;;;;;;;;;;;;;;;;;;5062715;28;19921;-63
2023/01/13 05:39:16;;;;;;;;;;;;;;;;;;5042402;28;20403;-62
2023/01/13 05:44:25;;;;;;;;;;;;;;;;;;5033474;28;19920;-64
2023/01/13 05:46:51;;;;;;;;;;;;;;;;;;5071021;28;19935;-63
2023/01/13 05:49:18;;;;;;;;;;;;;;;;;;5053468;28;20143;-64
2023/01/13 05:51:43;;;;;;;;;;;;;;;;;;5053847;28;19913;-64
2023/01/13 05:54:08;;;;;;;;;;;;;;;;;;5053560;28;20335;-64
2023/01/13 05:56:33;;;;;;;;;;;;;;;;;;5068651;28;20376;-64
2023/01/13 05:58:59;;;;;;;;;;;;;;;;;;5069460;28;19908;-64
2023/01/13 06:01:24;;;;;;;;;;;;;;;;;;5068934;28;19920;-63
2023/01/13 06:03:49;;;;;;;;;;;;;;;;;;5067633;28;19912;-63
2023/01/13 06:06:14;;;;;;;;;;;;;;;;;;5040169;28;19943;-64
2023/01/13 06:08:39;;;;;;;;;;;;;;;;;;5060113;28;20288;-65
2023/01/13 06:11:04;;;;;;;;;;;;;;;;;;5039309;28;20315;-65
2023/01/13 06:13:30;;;;;;;;;;;;;;;;;;5088400;28;20314;-64
2023/01/13 06:15:55;;;;;;;;;;;;;;;;;;5071756;28;20400;-64
2023/01/13 06:18:20;;;;;;;;;;;;;;;;;;5073037;28;19916;-65
2023/01/13 06:20:45;;;;;;;;;;;;;;;;;;5070334;28;19923;-65
2023/01/13 06:23:11;;;;;;;;;;;;;;;;;;5070484;28;19912;-65
2023/01/13 06:25:36;;;;;;;;;;;;;;;;;;5071713;28;20369;-65
2023/01/13 06:28:01;;;;;;;;;;;;;;;;;;5072345;28;19916;-65
2023/01/13 06:30:26;;;;;;;;;;;;;;;;;;5068159;28;19923;-65
2023/01/13 06:32:51;;;;;;;;;;;;;;;;;;5070579;28;20347;-65
2023/01/13 06:35:16;;;;;;;;;;;;;;;;;;5071028;28;19912;-65
2023/01/13 06:37:41;;;;;;;;;;;;;;;;;;5053547;28;19923;-65
2023/01/13 06:40:06;;;;;;;;;;;;;;;;;;5065194;28;19921;-65
2023/01/13 06:45:16;;;;;;;;;;;;;;;;;;5061724;28;19927;-64
2023/01/13 06:47:42;;;;;;;;;;;;;;;;;;5071382;28;19913;-65
2023/01/13 06:50:07;;;;;;;;;;;;;;;;;;5070387;28;20015;-65
2023/01/13 06:52:32;;;;;;;;;;;;;;;;;;5072234;28;19952;-65
2023/01/13 06:54:57;;;;;;;;;;;;;;;;;;5068148;28;19913;-65
2023/01/13 06:57:22;;;;;;;;;;;;;;;;;;5011612;28;19924;-65
2023/01/13 06:59:47;;;;;;;;;;;;;;;;;;5071674;28;19995;-65
2023/01/13 07:02:13;;;;;;;;;;;;;;;;;;5065917;28;20326;-65
2023/01/13 07:04:38;;;;;;;;;;;;;;;;;;5070608;28;19950;-65
2023/01/13 07:07:03;;;;;;;;;;;;;;;;;;5072732;28;19912;-65
2023/01/13 07:09:28;;;;;;;;;;;;;;;;;;5072833;28;19912;-63
2023/01/13 07:11:53;;;;;;;;;;;;;;;;;;5067346;28;19920;-64
2023/01/13 07:17:02;;;;;;;;;;;;;;;;;;5080088;28;19920;-64
2023/01/13 07:19:27;;;;;;;;;;;;;;;;;;5071612;28;19916;-64
2023/01/13 07:21:52;;;;;;;;;;;;;;;;;;5073519;28;19917;-64
2023/01/13 07:24:18;;;;;;;;;;;;;;;;;;5089983;28;19931;-64
2023/01/13 07:26:43;;;;;;;;;;;;;;;;;;5062076;28;20284;-64
2023/01/13 07:29:08;;;;;;;;;;;;;;;;;;5075402;28;20266;-64
2023/01/13 07:31:33;;;;;;;;;;;;;;;;;;5074803;28;19919;-64
2023/01/13 07:33:58;;;;;;;;;;;;;;;;;;5074817;28;19958;-64
2023/01/13 07:36:24;;;;;;;;;;;;;;;;;;5073504;28;19920;-64
2023/01/13 07:38:49;;;;;;;;;;;;;;;;;;5074952;28;19921;-64
2023/01/13 07:43:59;;;;;;;;;;;;;;;;;;5074174;28;19935;-64
2023/01/13 07:46:24;;;;;;;;;;;;;;;;;;5058392;28;19913;-64
2023/01/13 07:48:49;;;;;;;;;;;;;;;;;;5073894;28;19999;-64
2023/01/13 07:51:14;;;;;;;;;;;;;;;;;;5074884;28;19915;-64
2023/01/13 07:53:39;;;;;;;;;;;;;;;;;;5071966;28;19912;-64
2023/01/13 07:56:04;;;;;;;;;;;;;;;;;;5074346;28;19909;-64
2023/01/13 07:58:30;;;;;;;;;;;;;;;;;;5075294;28;20038;-64
2023/01/13 08:00:55;;;;;;;;;;;;;;;;;;5074441;28;19919;-64
2023/01/13 08:03:20;;;;;;;;;;;;;;;;;;5074959;28;20391;-64
2023/01/13 08:05:45;;;;;;;;;;;;;;;;;;5071858;28;20033;-64
2023/01/13 08:08:10;;;;;;;;;;;;;;;;;;5067268;28;19912;-64
2023/01/13 08:10:36;;;;;;;;;;;;;;;;;;5071859;28;19912;-64
2023/01/13 08:13:16;;;;;;;;;;;;;;;;;;5066165;28;20300;-64
2023/01/13 08:15:42;;;;;;;;;;;;;;;;;;5064933;28;19920;-63
2023/01/13 08:18:07;;;;;;;;;;;;;;;;;;5073107;28;19912;-63
2023/01/13 08:20:32;;;;;;;;;;;;;;;;;;5061868;28;19916;-62
2023/01/13 08:22:57;;;;;;;;;;;;;;;;;;5065800;28;20285;-62
2023/01/13 08:25:22;;;;;;;;;;;;;;;;;;5070496;28;20479;-63
2023/01/13 08:27:47;;;;;;;;;;;;;;;;;;5067682;28;19913;-62
2023/01/13 08:30:13;;;;;;;;;;;;;;;;;;5069479;28;19912;-63
2023/01/13 08:32:38;;;;;;;;;;;;;;;;;;5072364;28;19939;-63
2023/01/13 08:35:03;;;;;;;;;;;;;;;;;;5072707;28;20370;-62
2023/01/13 08:37:28;;;;;;;;;;;;;;;;;;5069408;28;20282;-63
2023/01/13 08:39:53;;;;;;;;;;;;;;;;;;5067877;28;19956;-63
2023/01/13 08:42:18;;;;;;;;;;;;;;;;;;5072511;28;19920;-63
2023/01/13 08:44:43;;;;;;;;;;;;;;;;;;5037000;28;20446;-63
2023/01/13 08:47:08;;;;;;;;;;;;;;;;;;5069566;28;19916;-64
2023/01/13 08:49:34;;;;;;;;;;;;;;;;;;5054375;28;19942;-63
2023/01/13 08:51:59;;;;;;;;;;;;;;;;;;5071244;28;20058;-62
2023/01/13 08:54:24;;;;;;;;;;;;;;;;;;5071834;28;19916;-62
2023/01/13 08:56:49;;;;;;;;;;;;;;;;;;5069434;28;20334;-63
2023/01/13 08:59:14;;;;;;;;;;;;;;;;;;5068154;28;20343;-63
2023/01/13 09:01:39;;;;;;;;;;;;;;;;;;5061893;28;19923;-63
2023/01/13 09:04:04;;;;;;;;;;;;;;;;;;5070483;28;19995;-63
2023/01/13 09:06:30;;;;;;;;;;;;;;;;;;5067107;28;20191;-63
2023/01/13 09:08:55;;;;;;;;;;;;;;;;;;5065219;28;19919;-63
2023/01/13 09:14:04;;;;;;;;;;;;;;;;;;5063052;28;20399;-63
2023/01/13 09:16:29;;;;;;;;;;;;;;;;;;5074300;28;19913;-62
2023/01/13 09:18:54;;;;;;;;;;;;;;;;;;5070068;28;19927;-62
2023/01/13 09:21:19;;;;;;;;;;;;;;;;;;5071117;28;19958;-62
2023/01/13 09:23:45;;;;;;;;;;;;;;;;;;5063018;28;19916;-62
2023/01/13 09:26:10;;;;;;;;;;;;;;;;;;5069778;28;20283;-62
2023/01/13 09:28:35;;;;;;;;;;;;;;;;;;5066320;28;19966;-62
2023/01/13 09:31:00;;;;;;;;;;;;;;;;;;5070345;28;19917;-62
2023/01/13 09:36:09;;;;;;;;;;;;;;;;;;5072303;28;19990;-62
2023/01/13 09:38:34;;;;;;;;;;;;;;;;;;5072815;28;20376;-62
2023/01/13 09:40:59;;;;;;;;;;;;;;;;;;5065717;28;20377;-62
2023/01/13 09:46:42;;;;;;;;;;;;;;;;;;5073241;28;20008;-62
2023/01/13 09:48:53;;;;;;;;;;;;;;;;;;5065553;28;19916;-62
2023/01/13 09:51:19;;;;;;;;;;;;;;;;;;5070634;28;20387;-63
2023/01/13 09:53:44;;;;;;;;;;;;;;;;;;5043586;28;20431;-63
2023/01/13 09:56:09;;;;;;;;;;;;;;;;;;5070377;28;20344;-62
2023/01/13 09:58:35;;;;;;;;;;;;;;;;;;5063619;28;19920;-62
2023/01/13 10:01:00;;;;;;;;;;;;;;;;;;5070236;28;19916;-62
2023/01/13 10:03:25;;;;;;;;;;;;;;;;;;5052736;28;20296;-63
2023/01/13 10:05:50;;;;;;;;;;;;;;;;;;5069053;28;19924;-62
2023/01/13 10:08:15;;;;;;;;;;;;;;;;;;5070381;28;20003;-62
2023/01/13 10:10:40;;;;;;;;;;;;;;;;;;5069432;28;19924;-62
2023/01/13 10:13:24;;;;;;;;;;;;;;;;;;5070676;28;19912;-62
2023/01/13 10:15:49;;;;;;;;;;;;;;;;;;5065892;28;19923;-62
2023/01/13 10:18:14;;;;;;;;;;;;;;;;;;5063166;28;20357;-63
2023/01/13 10:20:39;;;;;;;;;;;;;;;;;;5062615;28;19916;-63
2023/01/13 10:23:04;;;;;;;;;;;;;;;;;;5062532;28;19912;-62
2023/01/13 10:25:29;;;;;;;;;;;;;;;;;;5069674;28;19913;-63
2023/01/13 10:27:54;;;;;;;;;;;;;;;;;;5069682;28;19913;-63
2023/01/13 10:30:20;;;;;;;;;;;;;;;;;;5061013;28;19951;-63
2023/01/13 10:32:45;;;;;;;;;;;;;;;;;;5051665;28;19913;-62
2023/01/13 10:35:10;;;;;;;;;;;;;;;;;;5070880;28;19959;-63
2023/01/13 10:37:35;;;;;;;;;;;;;;;;;;5068013;28;20380;-62
2023/01/13 10:40:00;;;;;;;;;;;;;;;;;;5064774;28;19966;-62
2023/01/13 10:42:25;;;;;;;;;;;;;;;;;;5072531;28;19913;-63
2023/01/13 10:44:50;;;;;;;;;;;;;;;;;;5070254;28;20396;-63
2023/01/13 10:47:16;;;;;;;;;;;;;;;;;;5065844;28;20011;-63
2023/01/13 10:49:41;;;;;;;;;;;;;;;;;;5074061;28;19912;-62
2023/01/13 10:52:06;;;;;;;;;;;;;;;;;;5081005;28;19981;-62
2023/01/13 10:54:31;;;;;;;;;;;;;;;;;;5072099;28;20060;-63
2023/01/13 10:56:56;;;;;;;;;;;;;;;;;;5074876;28;19920;-63
2023/01/13 10:59:22;;;;;;;;;;;;;;;;;;5080722;28;19951;-63
2023/01/13 11:01:47;;;;;;;;;;;;;;;;;;5066424;28;19917;-63
2023/01/13 11:04:12;;;;;;;;;;;;;;;;;;5073335;28;19913;-63
2023/01/13 11:06:37;;;;;;;;;;;;;;;;;;5064296;28;19912;-63
2023/01/13 11:09:02;;;;;;;;;;;;;;;;;;5061223;28;19924;-63
2023/01/13 11:11:28;;;;;;;;;;;;;;;;;;5073617;28;19970;-63
2023/01/13 11:16:36;;;;;;;;;;;;;;;;;;5075312;28;19919;-63
2023/01/13 11:19:10;;;;;;;;;;;;;;;;;;5078881;28;19917;-63
2023/01/13 11:21:35;;;;;;;;;;;;;;;;;;5076807;28;20016;-63
2023/01/13 11:24:00;;;;;;;;;;;;;;;;;;5078537;28;19999;-63
2023/01/13 11:26:25;;;;;;;;;;;;;;;;;;5066636;28;19970;-64
2023/01/13 11:28:51;;;;;;;;;;;;;;;;;;5073209;28;19913;-63
2023/01/13 11:31:16;;;;;;;;;;;;;;;;;;5069038;28;19912;-63
2023/01/13 11:33:41;;;;;;;;;;;;;;;;;;5069211;28;20517;-63
2023/01/13 11:36:06;;;;;;;;;;;;;;;;;;5059772;28;19912;-63
2023/01/13 11:38:31;;;;;;;;;;;;;;;;;;5072533;28;19916;-64
2023/01/13 11:40:57;;;;;;;;;;;;;;;;;;5072377;28;20372;-63
2023/01/13 11:43:22;;;;;;;;;;;;;;;;;;5058698;28;20321;-64
2023/01/13 11:45:47;;;;;;;;;;;;;;;;;;5067620;28;19974;-63
2023/01/13 11:48:12;;;;;;;;;;;;;;;;;;5067322;28;20395;-63
2023/01/13 11:50:37;;;;;;;;;;;;;;;;;;5071394;28;20387;-64
2023/01/13 11:53:02;;;;;;;;;;;;;;;;;;5070961;28;19913;-64
2023/01/13 11:55:27;;;;;;;;;;;;;;;;;;5073577;28;19955;-64
2023/01/13 11:57:53;;;;;;;;;;;;;;;;;;5073695;28;19917;-64
2023/01/13 12:00:18;;;;;;;;;;;;;;;;;;5070625;28;20372;-64
2023/01/13 12:02:43;;;;;;;;;;;;;;;;;;5067065;28;20383;-64
2023/01/13 12:05:08;;;;;;;;;;;;;;;;;;5073367;28;19912;-64
2023/01/13 12:07:33;;;;;;;;;;;;;;;;;;5066607;28;19917;-64
2023/01/13 12:09:58;;;;;;;;;;;;;;;;;;5064931;28;19913;-63
2023/01/13 12:12:26;;;;;;;;;;;;;;;;;;5071595;28;19914;-63
2023/01/13 12:14:51;;;;;;;;;;;;;;;;;;5073150;28;20387;-64
2023/01/13 12:17:16;;;;;;;;;;;;;;;;;;5056672;28;20027;-63
2023/01/13 12:19:41;;;;;;;;;;;;;;;;;;5072650;28;19916;-64
2023/01/13 12:22:07;;;;;;;;;;;;;;;;;;5053039;28;20365;-64
2023/01/13 12:24:32;;;;;;;;;;;;;;;;;;5065869;28;20427;-63
2023/01/13 12:26:58;;;;;;;;;;;;;;;;;;5072530;28;19959;-64
2023/01/13 12:29:23;;;;;;;;;;;;;;;;;;5071796;28;19915;-64
2023/01/13 12:31:48;;;;;;;;;;;;;;;;;;5072869;28;19912;-64
2023/01/13 12:34:13;;;;;;;;;;;;;;;;;;5077217;28;19912;-64
2023/01/13 12:36:38;;;;;;;;;;;;;;;;;;5063175;28;19912;-64
2023/01/13 12:39:05;;;;;;;;;;;;;;;;;;5072614;28;19920;-64
2023/01/13 12:41:31;;;;;;;;;;;;;;;;;;5072094;28;19923;-63
2023/01/13 12:46:40;;;;;;;;;;;;;;;;;;5070606;28;19965;-64
2023/01/13 12:49:05;;;;;;;;;;;;;;;;;;5076887;28;20031;-64
2023/01/13 12:51:34;;;;;;;;;;;;;;;;;;5054002;28;20011;-64
2023/01/13 12:53:59;;;;;;;;;;;;;;;;;;5054160;28;19912;-64
2023/01/13 12:56:24;;;;;;;;;;;;;;;;;;5068054;28;20383;-64
2023/01/13 12:58:49;;;;;;;;;;;;;;;;;;5072390;28;19919;-64
2023/01/13 13:01:15;;;;;;;;;;;;;;;;;;5070268;28;20011;-64
2023/01/13 13:03:40;;;;;;;;;;;;;;;;;;5069769;28;20489;-64
2023/01/13 13:06:05;;;;;;;;;;;;;;;;;;5050322;28;19920;-64
2023/01/13 13:08:31;;;;;;;;;;;;;;;;;;5061317;28;19917;-64
2023/01/13 13:10:56;;;;;;;;;;;;;;;;;;5067850;28;19978;-64
2023/01/13 13:13:21;;;;;;;;;;;;;;;;;;5058508;28;19926;-63
2023/01/13 13:15:46;;;;;;;;;;;;;;;;;;5068888;28;19912;-63
2023/01/13 13:18:11;;;;;;;;;;;;;;;;;;5073287;28;20367;-63
2023/01/13 13:20:36;;;;;;;;;;;;;;;;;;5065950;28;19927;-63
2023/01/13 13:23:02;;;;;;;;;;;;;;;;;;5068890;28;20008;-63
2023/01/13 13:25:27;;;;;;;;;;;;;;;;;;5068482;28;19920;-63
2023/01/13 13:27:52;;;;;;;;;;;;;;;;;;5064322;28;19912;-63
2023/01/13 13:30:17;;;;;;;;;;;;;;;;;;5070063;28;19969;-63
2023/01/13 13:32:42;;;;;;;;;;;;;;;;;;5074929;28;20430;-63
2023/01/13 13:35:07;;;;;;;;;;;;;;;;;;5067795;28;19951;-63
2023/01/13 13:46:45;;;;;;;;;;;;;;;;;;5061346;28;19921;-63
2023/01/13 13:48:29;;;;;;;;;;;;;;;;;;5052703;28;20356;-60
2023/01/13 13:50:57;;;;;;;;;;;;;;;;;;5070171;28;19968;-59
2023/01/13 13:53:23;;;;;;;;;;;;;;;;;;5063628;28;19919;-58
2023/01/13 13:55:48;;;;;;;;;;;;;;;;;;5071982;28;20424;-59
2023/01/13 13:58:13;;;;;;;;;;;;;;;;;;5081462;28;20371;-60
2023/01/13 14:00:41;;;;;;;;;;;;;;;;;;5056371;28;19916;-58
2023/01/13 14:03:06;;;;;;;;;;;;;;;;;;5072502;28;19919;-58
2023/01/13 14:05:32;;;;;;;;;;;;;;;;;;5061852;28;20562;-64
2023/01/13 14:07:57;;;;;;;;;;;;;;;;;;5061610;28;20433;-61
2023/01/13 14:10:23;;;;;;;;;;;;;;;;;;5067353;28;19916;-62
2023/01/13 14:12:48;;;;;;;;;;;;;;;;;;5085464;28;20051;-64
2023/01/13 14:15:13;;;;;;;;;;;;;;;;;;5074458;28;20377;-65
2023/01/13 14:17:39;;;;;;;;;;;;;;;;;;5046705;28;19920;-66
2023/01/13 14:20:04;;;;;;;;;;;;;;;;;;5071083;28;20356;-63
2023/01/13 14:22:29;;;;;;;;;;;;;;;;;;5071894;28;19913;-63
2023/01/13 14:24:56;;;;;;;;;;;;;;;;;;5072874;28;20349;-61
2023/01/13 14:27:22;;;;;;;;;;;;;;;;;;5068073;28;20279;-61
2023/01/13 14:29:47;;;;;;;;;;;;;;;;;;5064728;28;20086;-61
2023/01/13 14:32:12;;;;;;;;;;;;;;;;;;5068547;28;20380;-61
2023/01/13 14:34:37;;;;;;;;;;;;;;;;;;5070593;28;19912;-61
2023/01/13 14:37:03;;;;;;;;;;;;;;;;;;5065619;28;20261;-62
2023/01/13 14:39:28;;;;;;;;;;;;;;;;;;5062298;28;19921;-61
2023/01/13 14:41:53;;;;;;;;;;;;;;;;;;5062978;28;19946;-61
2023/01/13 14:44:18;;;;;;;;;;;;;;;;;;5065954;28;19912;-61
2023/01/13 14:46:43;;;;;;;;;;;;;;;;;;5064975;28;19956;-61
2023/01/13 14:49:08;;;;;;;;;;;;;;;;;;5065533;28;19912;-61
2023/01/13 14:51:33;;;;;;;;;;;;;;;;;;5062129;28;19920;-61
2023/01/13 14:53:58;;;;;;;;;;;;;;;;;;5054690;28;20000;-61
2023/01/13 14:56:24;;;;;;;;;;;;;;;;;;5073232;28;19912;-61
2023/01/13 14:58:49;;;;;;;;;;;;;;;;;;5065078;28;19979;-61
2023/01/13 15:01:14;;;;;;;;;;;;;;;;;;5071127;28;19924;-61
2023/01/13 15:03:39;;;;;;;;;;;;;;;;;;5071750;28;19965;-60
2023/01/13 15:06:04;;;;;;;;;;;;;;;;;;5069976;28;19924;-61
2023/01/13 15:08:29;;;;;;;;;;;;;;;;;;5069542;28;19914;-60
2023/01/13 15:10:58;;;;;;;;;;;;;;;;;;5072644;28;19959;-61
2023/01/13 15:13:23;;;;;;;;;;;;;;;;;;5085863;28;19912;-63
2023/01/13 15:15:49;;;;;;;;;;;;;;;;;;5083613;28;19915;-61
2023/01/13 15:18:14;;;;;;;;;;;;;;;;;;5075863;28;19975;-61
2023/01/13 15:20:39;;;;;;;;;;;;;;;;;;5070365;28;19912;-61
2023/01/13 15:23:04;;;;;;;;;;;;;;;;;;5074332;28;20030;-61
2023/01/13 15:25:29;;;;;;;;;;;;;;;;;;5080429;28;19962;-61
2023/01/13 15:27:54;;;;;;;;;;;;;;;;;;5072995;28;20269;-61
2023/01/13 15:30:19;;;;;;;;;;;;;;;;;;5082930;28;19970;-61
2023/01/13 15:32:45;;;;;;;;;;;;;;;;;;5074622;28;19917;-63
2023/01/13 15:35:10;;;;;;;;;;;;;;;;;;5060674;28;19976;-62
2023/01/13 15:37:35;;;;;;;;;;;;;;;;;;5081581;28;19935;-61
2023/01/13 15:40:00;;;;;;;;;;;;;;;;;;5071093;28;19928;-61
2023/01/13 15:47:53;;;;;;;;;;;;;;;;;;5063504;28;20296;-62
2023/01/13 15:50:19;;;;;;;;;;;;;;;;;;5052370;28;20369;-62
2023/01/13 15:52:44;;;;;;;;;;;;;;;;;;5070471;28;20012;-62
2023/01/13 15:55:10;;;;;;;;;;;;;;;;;;5066387;28;19982;-62
2023/01/13 15:57:35;;;;;;;;;;;;;;;;;;5071905;28;20066;-62
2023/01/13 16:00:00;;;;;;;;;;;;;;;;;;5052750;28;20365;-62
2023/01/13 16:02:25;;;;;;;;;;;;;;;;;;5072709;28;19923;-60
2023/01/13 16:04:52;;;;;;;;;;;;;;;;;;5074390;28;19931;-61
2023/01/13 16:07:17;;;;;;;;;;;;;;;;;;5070808;28;19952;-62
2023/01/13 16:09:43;;;;;;;;;;;;;;;;;;5070172;28;19942;-62
2023/01/13 16:12:09;;;;;;;;;;;;;;;;;;5072902;28;20365;-63
2023/01/13 16:14:34;;;;;;;;;;;;;;;;;;5070647;28;19922;-62
2023/01/13 16:16:59;;;;;;;;;;;;;;;;;;5076800;28;19955;-62
2023/01/13 16:19:24;;;;;;;;;;;;;;;;;;5093113;28;19912;-61
2023/01/13 16:21:49;;;;;;;;;;;;;;;;;;5078127;28;19916;-61
2023/01/13 16:24:14;;;;;;;;;;;;;;;;;;5059073;28;19924;-61
2023/01/13 16:26:39;;;;;;;;;;;;;;;;;;5083152;28;19912;-62
2023/01/13 16:29:05;;;;;;;;;;;;;;;;;;5082651;28;19913;-61
2023/01/13 16:31:30;;;;;;;;;;;;;;;;;;5063745;28;19958;-62
2023/01/13 16:33:56;;;;;;;;;;;;;;;;;;5071717;28;19955;-61
2023/01/13 16:36:21;;;;;;;;;;;;;;;;;;5067560;28;19912;-61
2023/01/13 16:38:46;;;;;;;;;;;;;;;;;;5073304;28;19920;-61
2023/01/13 16:41:11;;;;;;;;;;;;;;;;;;5074666;28;19916;-62
2023/01/13 16:43:36;;;;;;;;;;;;;;;;;;5066102;28;19935;-62
2023/01/13 16:46:01;;;;;;;;;;;;;;;;;;5082951;28;19969;-61
2023/01/13 16:48:26;;;;;;;;;;;;;;;;;;5076069;28;19908;-60
2023/01/13 16:50:52;;;;;;;;;;;;;;;;;;5078423;28;19909;-62
2023/01/13 16:53:17;;;;;;;;;;;;;;;;;;5053557;28;19951;-61
2023/01/13 16:55:42;;;;;;;;;;;;;;;;;;5083835;28;19912;-61
2023/01/13 16:58:07;;;;;;;;;;;;;;;;;;5082137;28;19999;-61
2023/01/13 17:00:32;;;;;;;;;;;;;;;;;;5090978;28;19912;-61
2023/01/13 17:02:59;;;;;;;;;;;;;;;;;;5072810;28;20011;-62
2023/01/13 17:05:25;;;;;;;;;;;;;;;;;;5070590;28;19970;-61
2023/01/13 17:07:50;;;;;;;;;;;;;;;;;;5071282;28;20328;-62
2023/01/13 17:10:15;;;;;;;;;;;;;;;;;;5072773;28;20444;-61
2023/01/13 17:12:40;;;;;;;;;;;;;;;;;;5073017;28;20288;-62
2023/01/13 17:15:05;;;;;;;;;;;;;;;;;;5074072;28;19919;-61
2023/01/13 17:17:30;;;;;;;;;;;;;;;;;;5070170;28;20326;-61
2023/01/13 17:19:56;;;;;;;;;;;;;;;;;;5080816;28;20438;-61
2023/01/13 17:22:21;;;;;;;;;;;;;;;;;;5084864;28;19916;-61
2023/01/13 17:24:46;;;;;;;;;;;;;;;;;;5077969;28;19995;-62
2023/01/13 17:27:11;;;;;;;;;;;;;;;;;;5071809;28;19908;-61
2023/01/13 17:29:36;;;;;;;;;;;;;;;;;;5071158;28;19916;-61
2023/01/13 17:32:01;;;;;;;;;;;;;;;;;;5069510;28;20291;-62
2023/01/13 17:34:26;;;;;;;;;;;;;;;;;;5068463;28;20017;-61